Time;durP1;ratioP1;P1;durP2;ratioP2;P2;SDS_P1;SDS_P2;PMS_P1;PMS_P2;Temp;Humidity;BMP_temperature;BMP_pressure;BME280_temperature;BME280_humidity;BME280_pressure;Samples;Min_cycle;Max_cycle;Signal;HPM_P1;HPM_P2
2022/11/20 00:00:46;;;;;;;128.13;55.90;;;-7.70;99.90;;;;;;5052977;28;20071;-73
2022/11/20 00:03:12;;;;;;;115.60;49.00;;;-7.70;99.90;;;;;;5053003;28;20024;-73
2022/11/20 00:05:38;;;;;;;100.17;43.33;;;-7.70;99.90;;;;;;5052776;28;20032;-67
2022/11/20 00:08:04;;;;;;;108.97;43.40;;;-7.70;99.90;;;;;;5052925;28;20021;-73
2022/11/20 00:10:29;;;;;;;96.00;40.83;;;-7.80;99.90;;;;;;5054051;28;20032;-73
2022/11/20 00:12:55;;;;;;;100.03;40.80;;;-7.80;99.90;;;;;;5073122;28;20029;-73
2022/11/20 00:15:21;;;;;;;95.30;40.97;;;-7.80;99.90;;;;;;5072993;28;20029;-73
2022/11/20 00:17:46;;;;;;;86.63;37.43;;;-7.80;99.90;;;;;;5072913;28;20107;-68
2022/11/20 00:20:12;;;;;;;74.90;33.50;;;-7.80;99.90;;;;;;5072889;28;20025;-67
2022/11/20 00:22:38;;;;;;;74.53;32.80;;;-7.80;99.90;;;;;;5072968;28;20112;-67
2022/11/20 00:25:04;;;;;;;69.60;30.60;;;-7.90;99.90;;;;;;5071356;28;20462;-73
2022/11/20 00:27:30;;;;;;;76.30;33.57;;;-7.90;99.90;;;;;;5074164;28;20025;-67
2022/11/20 00:29:55;;;;;;;100.87;40.03;;;-8.00;99.90;;;;;;5076601;28;20028;-73
2022/11/20 00:32:21;;;;;;;122.00;46.60;;;-8.00;99.90;;;;;;5075629;28;20035;-67
2022/11/20 00:34:46;;;;;;;110.30;43.30;;;-8.00;99.90;;;;;;5076690;28;20028;-73
2022/11/20 00:37:12;;;;;;;90.00;37.67;;;-7.90;99.90;;;;;;5065915;28;20028;-73
2022/11/20 00:39:37;;;;;;;86.97;36.63;;;-8.00;99.90;;;;;;5056550;28;20048;-67
2022/11/20 00:42:03;;;;;;;83.27;37.53;;;-8.00;99.90;;;;;;5056290;28;20056;-73
2022/11/20 00:44:29;;;;;;;98.23;39.10;;;-8.00;99.90;;;;;;5056259;28;20033;-73
2022/11/20 00:46:54;;;;;;;86.07;37.07;;;-8.00;99.90;;;;;;5056813;28;20074;-72
2022/11/20 00:49:20;;;;;;;91.33;38.63;;;-8.00;99.90;;;;;;5056458;28;20040;-73
2022/11/20 00:51:45;;;;;;;93.60;41.83;;;-8.10;99.90;;;;;;5056164;28;20025;-73
2022/11/20 00:54:11;;;;;;;101.17;43.03;;;-8.10;99.90;;;;;;5056319;28;20497;-72
2022/11/20 00:56:36;;;;;;;105.97;42.57;;;-8.20;99.90;;;;;;5056350;28;20029;-67
2022/11/20 00:59:02;;;;;;;98.40;41.07;;;-8.30;99.90;;;;;;5056271;28;20033;-67
2022/11/20 01:01:29;;;;;;;96.47;38.83;;;-8.30;99.90;;;;;;5054908;28;20072;-73
2022/11/20 01:03:56;;;;;;;91.93;38.37;;;-8.30;99.90;;;;;;5056010;28;20025;-68
2022/11/20 01:06:25;;;;;;;68.67;30.00;;;-8.30;99.90;;;;;;5056064;28;20055;-73
2022/11/20 01:08:53;;;;;;;60.60;29.03;;;-8.40;99.90;;;;;;5056085;28;20104;-67
2022/11/20 01:11:24;;;;;;;72.63;32.27;;;-8.40;99.90;;;;;;5054679;28;20371;-66
2022/11/20 01:13:51;;;;;;;66.73;31.07;;;-8.40;99.90;;;;;;5055912;28;20029;-73
2022/11/20 01:16:22;;;;;;;65.53;29.97;;;-8.40;99.90;;;;;;5055744;28;20024;-73
2022/11/20 01:18:51;;;;;;;63.20;28.57;;;-8.40;99.90;;;;;;5054694;28;20032;-67
2022/11/20 01:21:20;;;;;;;66.37;30.07;;;-8.40;99.90;;;;;;5055720;28;20527;-67
2022/11/20 01:23:47;;;;;;;70.67;28.73;;;-8.40;99.90;;;;;;5055852;28;20051;-73
2022/11/20 01:26:16;;;;;;;67.30;29.23;;;-8.40;99.90;;;;;;5055656;28;20073;-67
2022/11/20 01:28:42;;;;;;;78.63;30.00;;;-8.40;99.90;;;;;;5055765;28;20372;-67
2022/11/20 01:31:30;;;;;;;73.37;31.07;;;-8.40;99.90;;;;;;5055527;28;20041;-73
2022/11/20 01:33:58;;;;;;;64.17;26.57;;;-8.40;99.90;;;;;;5055739;28;20100;-73
2022/11/20 01:36:26;;;;;;;71.40;30.20;;;-8.40;99.90;;;;;;5055186;28;20486;-73
2022/11/20 01:39:00;;;;;;;67.60;29.60;;;-8.40;99.90;;;;;;5053305;28;20037;-73
2022/11/20 01:44:14;;;;;;;74.93;30.33;;;-8.40;99.90;;;;;;5055453;28;20468;-66
2022/11/20 01:46:51;;;;;;;65.90;28.53;;;-8.40;99.90;;;;;;5055377;28;20079;-73
2022/11/20 01:49:29;;;;;;;66.43;29.97;;;-8.40;99.90;;;;;;5055392;28;20032;-73
2022/11/20 01:52:04;;;;;;;64.13;26.27;;;-8.40;99.90;;;;;;5055322;28;20070;-73
2022/11/20 01:54:40;;;;;;;68.80;29.13;;;-8.40;99.90;;;;;;5055175;28;20489;-73
2022/11/20 01:57:08;;;;;;;62.53;28.53;;;-8.40;99.90;;;;;;5053829;28;20032;-67
2022/11/20 01:59:37;;;;;;;67.07;27.00;;;-8.40;99.90;;;;;;5055051;28;20033;-73
2022/11/20 02:02:02;;;;;;;62.73;26.53;;;-8.40;99.90;;;;;;5055010;28;20021;-67
2022/11/20 02:04:28;;;;;;;53.00;26.60;;;-8.50;99.90;;;;;;5053793;28;20039;-72
2022/11/20 02:07:02;;;;;;;60.97;25.87;;;-8.40;99.90;;;;;;5053704;28;20021;-68
2022/11/20 02:09:28;;;;;;;60.33;26.87;;;-8.40;99.90;;;;;;5054799;28;20087;-67
2022/11/20 02:11:54;;;;;;;61.17;27.33;;;-8.50;99.90;;;;;;5068416;28;20012;-68
2022/11/20 02:14:22;;;;;;;60.37;28.17;;;-8.50;99.90;;;;;;5074796;28;20100;-68
2022/11/20 02:16:49;;;;;;;66.20;28.13;;;-8.50;99.90;;;;;;5073472;28;20036;-73
2022/11/20 02:19:28;;;;;;;62.63;27.60;;;-8.50;99.90;;;;;;5074806;28;20035;-66
2022/11/20 02:22:06;;;;;;;67.73;27.90;;;-8.50;99.90;;;;;;5074726;28;20028;-67
2022/11/20 02:24:31;;;;;;;59.43;27.77;;;-8.50;99.90;;;;;;5073336;28;20020;-68
2022/11/20 02:27:06;;;;;;;65.30;28.37;;;-8.50;99.90;;;;;;5074610;28;20497;-68
2022/11/20 02:29:53;;;;;;;61.30;28.83;;;-8.50;99.90;;;;;;5074608;28;20021;-68
2022/11/20 02:32:31;;;;;;;67.57;29.20;;;-8.50;99.90;;;;;;5070830;28;20029;-67
2022/11/20 02:34:56;;;;;;;75.60;31.07;;;-8.50;99.90;;;;;;5074562;28;20074;-73
2022/11/20 02:37:22;;;;;;;77.73;31.87;;;-8.50;99.90;;;;;;5061610;28;20025;-73
2022/11/20 02:39:50;;;;;;;75.23;31.00;;;-8.60;99.90;;;;;;5054294;28;20048;-67
2022/11/20 02:42:16;;;;;;;84.83;34.67;;;-8.60;99.90;;;;;;5054237;28;20140;-67
2022/11/20 02:44:42;;;;;;;84.27;33.93;;;-8.60;99.90;;;;;;5054187;28;20061;-67
2022/11/20 02:47:08;;;;;;;75.80;34.33;;;-8.70;99.90;;;;;;5054101;28;20056;-68
2022/11/20 02:49:33;;;;;;;77.90;33.63;;;-8.70;99.90;;;;;;5054238;28;20025;-72
2022/11/20 02:51:59;;;;;;;76.60;32.33;;;-8.80;99.90;;;;;;5053014;28;20386;-67
2022/11/20 02:54:25;;;;;;;72.13;30.23;;;-8.80;99.90;;;;;;5052508;28;20021;-67
2022/11/20 02:56:51;;;;;;;60.40;26.43;;;-8.80;99.90;;;;;;5054066;28;20021;-68
2022/11/20 02:59:16;;;;;;;58.13;26.93;;;-8.80;99.90;;;;;;5053837;28;20516;-73
2022/11/20 03:01:42;;;;;;;56.83;26.27;;;-8.80;99.90;;;;;;5053961;28;20025;-73
2022/11/20 03:04:08;;;;;;;59.63;27.00;;;-8.80;99.90;;;;;;5053743;28;20025;-73
2022/11/20 03:06:33;;;;;;;58.47;26.77;;;-8.80;99.90;;;;;;5053843;28;20390;-73
2022/11/20 03:08:59;;;;;;;58.33;26.80;;;-8.80;99.90;;;;;;5053906;28;20029;-73
2022/11/20 03:11:24;;;;;;;60.70;25.13;;;-8.80;99.90;;;;;;5062336;28;20078;-72
2022/11/20 03:13:50;;;;;;;63.47;25.00;;;-8.80;99.90;;;;;;5072423;28;20031;-67
2022/11/20 03:16:18;;;;;;;52.27;23.10;;;-8.80;99.90;;;;;;5073609;28;20028;-68
2022/11/20 03:18:44;;;;;;;52.23;22.83;;;-8.80;99.90;;;;;;5073462;28;20064;-67
2022/11/20 03:21:11;;;;;;;58.33;25.73;;;-8.80;99.90;;;;;;5073585;28;20055;-67
2022/11/20 03:23:37;;;;;;;61.27;24.27;;;-8.80;99.90;;;;;;5073570;28;20028;-67
2022/11/20 03:26:09;;;;;;;60.77;24.90;;;-8.80;99.90;;;;;;5073383;28;20039;-73
2022/11/20 03:28:34;;;;;;;59.50;25.10;;;-8.80;99.90;;;;;;5073459;28;20017;-73
2022/11/20 03:31:06;;;;;;;55.70;25.30;;;-8.80;99.90;;;;;;5073284;28;20031;-73
2022/11/20 03:33:32;;;;;;;57.83;24.00;;;-8.80;99.90;;;;;;5073544;28;20021;-73
2022/11/20 03:36:02;;;;;;;57.63;24.70;;;-8.80;99.90;;;;;;5072019;28;20081;-67
2022/11/20 03:38:31;;;;;;;58.87;25.53;;;-8.80;99.90;;;;;;5053230;28;20037;-68
2022/11/20 03:41:06;;;;;;;62.40;27.17;;;-8.70;99.90;;;;;;5052083;28;20021;-67
2022/11/20 03:43:32;;;;;;;57.17;25.00;;;-8.60;99.90;;;;;;5053312;28;20057;-73
2022/11/20 03:45:58;;;;;;;53.27;25.33;;;-8.60;99.90;;;;;;5051968;28;20414;-66
2022/11/20 03:48:24;;;;;;;54.47;24.77;;;-8.60;99.90;;;;;;5052998;28;20028;-67
2022/11/20 03:50:50;;;;;;;62.40;27.13;;;-8.50;99.90;;;;;;5053188;28;20025;-67
2022/11/20 03:53:16;;;;;;;61.50;26.60;;;-8.60;99.90;;;;;;5053015;28;20466;-68
2022/11/20 03:55:42;;;;;;;71.53;27.80;;;-8.60;99.90;;;;;;5053107;28;20025;-67
2022/11/20 03:58:09;;;;;;;62.20;27.93;;;-8.70;99.90;;;;;;5053193;28;20044;-73
2022/11/20 04:00:35;;;;;;;61.43;27.27;;;-8.70;99.90;;;;;;5052930;28;20060;-72
2022/11/20 04:03:02;;;;;;;60.83;27.17;;;-8.80;99.90;;;;;;5052775;28;20024;-67
2022/11/20 04:05:28;;;;;;;56.13;27.90;;;-8.80;99.90;;;;;;5051516;28;20116;-73
2022/11/20 04:07:54;;;;;;;60.87;28.53;;;-8.90;99.90;;;;;;5053130;28;20109;-73
2022/11/20 04:10:19;;;;;;;50.57;25.03;;;-8.90;99.90;;;;;;5054119;28;20036;-73
2022/11/20 04:12:45;;;;;;;62.17;27.03;;;-8.90;99.90;;;;;;5073067;28;20039;-67
2022/11/20 04:15:11;;;;;;;63.47;25.33;;;-9.00;99.90;;;;;;5072877;28;20032;-73
2022/11/20 04:17:36;;;;;;;57.17;25.07;;;-9.00;99.90;;;;;;5073069;28;20096;-67
2022/11/20 04:20:02;;;;;;;63.00;25.97;;;-9.00;99.90;;;;;;5072871;28;20048;-67
2022/11/20 04:22:28;;;;;;;70.17;25.50;;;-9.00;99.90;;;;;;5072877;28;20024;-67
2022/11/20 04:24:53;;;;;;;51.17;22.93;;;-9.10;99.90;;;;;;5072821;28;20470;-67
2022/11/20 04:27:19;;;;;;;61.00;24.87;;;-9.10;99.90;;;;;;5072933;28;20017;-73
2022/11/20 04:29:44;;;;;;;62.27;25.90;;;-9.10;99.90;;;;;;5072786;28;20028;-67
2022/11/20 04:32:10;;;;;;;58.87;25.40;;;-9.10;99.90;;;;;;5072850;28;20031;-67
2022/11/20 04:34:35;;;;;;;54.27;25.43;;;-9.10;99.90;;;;;;5072740;28;20055;-67
2022/11/20 04:37:01;;;;;;;53.90;23.23;;;-9.10;99.90;;;;;;5062336;28;20017;-67
2022/11/20 04:39:27;;;;;;;51.17;25.17;;;-9.20;99.90;;;;;;5052603;28;20394;-73
2022/11/20 04:42:28;;;;;;;53.93;24.13;;;-9.20;99.90;;;;;;5052457;28;20021;-67
2022/11/20 04:44:38;;;;;;;66.60;27.13;;;-9.20;99.90;;;;;;5052366;28;20053;-73
2022/11/20 04:47:03;;;;;;;56.07;22.93;;;-9.20;99.90;;;;;;5052741;28;20498;-68
2022/11/20 04:49:29;;;;;;;52.00;23.53;;;-9.20;99.90;;;;;;5052423;28;20017;-67
2022/11/20 04:51:55;;;;;;;53.13;23.17;;;-9.20;99.90;;;;;;5051385;28;20021;-73
2022/11/20 04:54:20;;;;;;;60.40;23.97;;;-9.20;99.90;;;;;;5051210;28;20544;-67
2022/11/20 04:56:50;;;;;;;53.13;24.33;;;-9.20;99.90;;;;;;5052669;28;20037;-68
2022/11/20 04:59:15;;;;;;;58.03;25.10;;;-9.20;99.90;;;;;;5052276;28;20494;-67
2022/11/20 05:01:41;;;;;;;58.73;25.03;;;-9.30;99.90;;;;;;5052543;28;20056;-68
2022/11/20 05:04:07;;;;;;;62.93;25.53;;;-9.20;99.90;;;;;;5052498;28;20424;-66
2022/11/20 05:06:32;;;;;;;56.03;25.43;;;-9.20;99.90;;;;;;5050981;28;20029;-73
2022/11/20 05:08:58;;;;;;;63.17;24.77;;;-9.30;99.90;;;;;;5052848;28;20527;-68
2022/11/20 05:11:24;;;;;;;49.47;23.80;;;-9.30;99.90;;;;;;5062307;28;20032;-73
2022/11/20 05:13:51;;;;;;;56.93;25.07;;;-9.30;99.90;;;;;;5072513;28;20077;-73
2022/11/20 05:16:22;;;;;;;51.53;22.70;;;-9.30;99.90;;;;;;5075817;28;20031;-73
2022/11/20 05:18:48;;;;;;;52.20;23.70;;;-9.30;99.90;;;;;;5074441;28;20037;-73
2022/11/20 05:21:14;;;;;;;59.97;26.73;;;-9.30;99.90;;;;;;5075766;28;20021;-70
2022/11/20 05:23:40;;;;;;;56.60;27.43;;;-9.30;99.90;;;;;;5075811;28;20025;-73
2022/11/20 05:26:08;;;;;;;64.30;28.30;;;-9.30;99.90;;;;;;5075632;28;20039;-72
2022/11/20 05:28:34;;;;;;;58.57;25.17;;;-9.40;99.90;;;;;;5075643;28;20021;-67
2022/11/20 05:31:07;;;;;;;59.83;25.20;;;-9.40;99.90;;;;;;5075443;28;20058;-67
2022/11/20 05:33:34;;;;;;;52.20;23.20;;;-9.40;99.90;;;;;;5075637;28;20055;-66
2022/11/20 05:36:00;;;;;;;55.07;25.07;;;-9.40;99.90;;;;;;5073150;28;20451;-73
2022/11/20 05:38:25;;;;;;;54.03;23.40;;;-9.50;99.90;;;;;;5055475;28;20071;-73
2022/11/20 05:40:51;;;;;;;57.93;25.90;;;-9.50;99.90;;;;;;5055446;28;20028;-73
2022/11/20 05:43:16;;;;;;;54.73;23.80;;;-9.60;99.90;;;;;;5055452;28;20053;-73
2022/11/20 05:45:42;;;;;;;54.00;23.87;;;-9.60;99.90;;;;;;5055403;28;20017;-73
2022/11/20 05:48:07;;;;;;;57.53;25.00;;;-9.50;99.90;;;;;;5054183;28;20410;-67
2022/11/20 05:50:33;;;;;;;50.30;24.17;;;-9.60;99.90;;;;;;5053995;28;20029;-67
2022/11/20 05:52:59;;;;;;;50.67;21.70;;;-9.50;99.90;;;;;;5054067;28;20029;-73
2022/11/20 05:55:26;;;;;;;55.87;23.03;;;-9.50;99.90;;;;;;5055143;28;20021;-67
2022/11/20 05:57:55;;;;;;;109.20;42.33;;;-9.50;99.90;;;;;;5054637;28;20049;-66
2022/11/20 06:00:21;;;;;;;126.83;48.17;;;-9.40;99.90;;;;;;5055082;28;20159;-73
2022/11/20 06:02:47;;;;;;;139.17;47.57;;;-9.30;99.90;;;;;;5053875;28;20020;-73
2022/11/20 06:05:12;;;;;;;139.53;48.63;;;-9.30;99.90;;;;;;5054845;28;20029;-73
2022/11/20 06:07:38;;;;;;;134.00;43.27;;;-9.20;99.90;;;;;;5055102;28;20044;-68
2022/11/20 06:10:04;;;;;;;117.23;40.40;;;-9.20;99.90;;;;;;5054927;28;20103;-67
2022/11/20 06:12:32;;;;;;;123.73;43.17;;;-9.10;99.90;;;;;;5074684;28;20021;-73
2022/11/20 06:14:58;;;;;;;117.40;40.13;;;-9.10;99.90;;;;;;5074965;28;20024;-67
2022/11/20 06:17:24;;;;;;;109.33;43.10;;;-9.00;99.90;;;;;;5074725;28;20071;-73
2022/11/20 06:19:49;;;;;;;102.03;39.87;;;-9.10;99.90;;;;;;5074610;28;20417;-73
2022/11/20 06:22:15;;;;;;;89.67;34.27;;;-9.00;99.90;;;;;;5074741;28;20020;-73
2022/11/20 06:24:40;;;;;;;67.80;28.40;;;-9.00;99.90;;;;;;5074546;28;20104;-67
2022/11/20 06:27:06;;;;;;;68.37;27.47;;;-9.00;99.90;;;;;;5074529;28;20032;-68
2022/11/20 06:29:31;;;;;;;57.67;24.53;;;-9.10;99.90;;;;;;5074637;28;20501;-67
2022/11/20 06:31:57;;;;;;;57.13;23.73;;;-9.10;99.90;;;;;;5074564;28;20020;-68
2022/11/20 06:34:23;;;;;;;48.60;21.73;;;-9.20;99.90;;;;;;5074345;28;20021;-67
2022/11/20 06:36:48;;;;;;;54.60;22.70;;;-9.20;99.90;;;;;;5064933;28;20029;-73
2022/11/20 06:39:14;;;;;;;71.07;26.87;;;-9.20;99.90;;;;;;5054318;28;20104;-67
2022/11/20 06:41:39;;;;;;;83.43;35.17;;;-9.20;99.90;;;;;;5053041;28;20386;-73
2022/11/20 06:44:05;;;;;;;94.37;42.43;;;-9.20;99.90;;;;;;5054323;28;20100;-73
2022/11/20 06:46:31;;;;;;;73.23;30.10;;;-9.10;99.90;;;;;;5053032;28;20028;-73
2022/11/20 06:48:58;;;;;;;62.30;28.30;;;-9.00;99.90;;;;;;5054089;28;20068;-67
2022/11/20 06:51:23;;;;;;;58.23;27.00;;;-9.00;99.90;;;;;;5053597;28;20052;-73
2022/11/20 06:53:49;;;;;;;63.37;28.43;;;-8.90;99.90;;;;;;5054243;28;20474;-73
2022/11/20 06:56:14;;;;;;;64.97;28.70;;;-8.80;99.90;;;;;;5051083;28;20033;-66
2022/11/20 06:58:40;;;;;;;65.90;27.87;;;-8.70;99.90;;;;;;5033338;28;20037;-73
2022/11/20 07:01:10;;;;;;;65.37;25.20;;;-8.70;99.90;;;;;;5033063;28;20044;-67
2022/11/20 07:03:36;;;;;;;59.43;27.27;;;-8.60;99.90;;;;;;5033206;28;20426;-73
2022/11/20 07:06:02;;;;;;;65.63;26.73;;;-8.40;99.90;;;;;;5030152;28;20471;-67
2022/11/20 07:08:29;;;;;;;58.27;26.50;;;-8.40;99.90;;;;;;5033531;28;20025;-67
2022/11/20 07:11:04;;;;;;;64.00;28.20;;;-8.30;99.90;;;;;;5047624;28;20097;-67
2022/11/20 07:13:30;;;;;;;62.10;26.90;;;-8.20;99.90;;;;;;5073135;28;20025;-67
2022/11/20 07:16:03;;;;;;;59.97;26.90;;;-8.10;99.90;;;;;;5065226;28;20025;-66
2022/11/20 07:18:28;;;;;;;67.53;27.60;;;-8.00;99.90;;;;;;5042130;28;20574;-66
2022/11/20 07:20:55;;;;;;;67.47;28.43;;;-7.90;99.90;;;;;;5043014;28;20100;-67
2022/11/20 07:23:20;;;;;;;84.37;37.33;;;-7.70;99.90;;;;;;5049224;28;20021;-67
2022/11/20 07:25:46;;;;;;;72.07;35.10;;;-7.60;99.90;;;;;;5033601;28;20524;-72
2022/11/20 07:28:13;;;;;;;64.23;30.90;;;-7.50;99.90;;;;;;5032182;28;20022;-67
2022/11/20 07:30:39;;;;;;;81.90;33.23;;;-7.40;99.90;;;;;;5033441;28;20097;-66
2022/11/20 07:33:04;;;;;;;84.13;38.43;;;-7.30;99.90;;;;;;5033523;28;20029;-67
2022/11/20 07:35:30;;;;;;;73.00;31.13;;;-7.10;99.90;;;;;;5031810;28;20025;-67
2022/11/20 07:37:55;;;;;;;70.53;30.37;;;-7.00;99.90;;;;;;5040567;28;20108;-73
2022/11/20 07:40:21;;;;;;;75.83;33.47;;;-6.80;99.90;;;;;;5031951;28;20029;-72
2022/11/20 07:42:51;;;;;;;70.83;32.93;;;-6.70;99.90;;;;;;5031961;28;20402;-72
2022/11/20 07:45:18;;;;;;;67.40;32.10;;;-6.50;99.90;;;;;;5033385;28;20474;-66
2022/11/20 07:47:44;;;;;;;83.47;34.00;;;-6.40;99.90;;;;;;5032096;28;20025;-72
2022/11/20 07:50:10;;;;;;;83.50;36.42;;;-6.30;99.90;;;;;;5033312;28;20033;-66
2022/11/20 07:52:36;;;;;;;95.53;41.07;;;-6.20;99.90;;;;;;5033257;28;20402;-67
2022/11/20 07:55:02;;;;;;;93.78;40.00;;;-6.00;99.90;;;;;;5047944;28;20025;-66
2022/11/20 07:57:27;;;;;;;72.82;34.17;;;-5.90;99.90;;;;;;5041274;28;20013;-68
2022/11/20 07:59:53;;;;;;;87.53;36.47;;;-5.70;99.90;;;;;;5042881;28;20028;-67
2022/11/20 08:02:18;;;;;;;85.75;38.67;;;-5.50;99.90;;;;;;5036467;28;20483;-73
2022/11/20 08:04:44;;;;;;;97.30;41.90;;;-5.40;99.90;;;;;;5047529;28;20082;-68
2022/11/20 08:07:10;;;;;;;104.78;45.42;;;-5.20;99.90;;;;;;5051505;28;20425;-68
2022/11/20 08:09:35;;;;;;;100.22;46.28;;;-5.10;99.90;;;;;;5052909;28;20104;-73
2022/11/20 08:14:45;;;;;;;100.97;44.70;;;-4.70;99.90;;;;;;5073190;28;20031;-67
2022/11/20 08:17:11;;;;;;;103.80;45.67;;;-4.60;99.90;;;;;;5071605;28;20033;-74
2022/11/20 08:19:36;;;;;;;111.97;50.40;;;-4.40;99.90;;;;;;5072683;28;20101;-67
2022/11/20 08:22:02;;;;;;;118.35;48.22;;;-4.20;99.90;;;;;;5071610;28;20374;-68
2022/11/20 08:24:27;;;;;;;110.15;51.83;;;-4.10;99.90;;;;;;5072687;28;20390;-67
2022/11/20 08:26:53;;;;;;;105.60;48.00;;;-4.00;99.90;;;;;;5072995;28;20025;-74
2022/11/20 08:29:19;;;;;;;70.63;33.88;;;-3.90;99.90;;;;;;5071404;28;20034;-74
2022/11/20 08:31:45;;;;;;;67.63;32.40;;;-3.80;99.90;;;;;;5072717;28;20021;-67
2022/11/20 08:34:10;;;;;;;56.45;26.55;;;-3.70;99.90;;;;;;5072690;28;20500;-72
2022/11/20 08:36:36;;;;;;;60.20;26.45;;;-3.60;99.90;;;;;;5063089;28;20052;-73
2022/11/20 08:39:03;;;;;;;57.08;27.27;;;-3.50;99.90;;;;;;5048199;28;20041;-67
2022/11/20 08:41:32;;;;;;;62.17;26.35;;;-3.40;99.90;;;;;;5036483;28;20021;-67
2022/11/20 08:44:07;;;;;;;58.85;28.38;;;-3.30;99.90;;;;;;5034621;28;20474;-67
2022/11/20 08:46:38;;;;;;;60.83;26.42;;;-3.20;99.90;;;;;;5037984;28;20113;-67
2022/11/20 08:49:05;;;;;;;50.88;24.10;;;-3.00;99.90;;;;;;5034636;28;20100;-74
2022/11/20 08:51:31;;;;;;;52.47;24.02;;;-3.00;99.90;;;;;;5036396;28;20022;-74
2022/11/20 08:53:57;;;;;;;47.10;24.25;;;-2.80;99.90;;;;;;5036222;28;20030;-74
2022/11/20 08:56:22;;;;;;;55.58;23.58;;;-2.70;99.90;;;;;;5036291;28;20108;-74
2022/11/20 08:58:51;;;;;;;50.17;23.77;;;-2.60;99.90;;;;;;5035035;28;20045;-69
2022/11/20 09:01:16;;;;;;;58.20;27.92;;;-2.50;99.90;;;;;;5036147;28;20025;-67
2022/11/20 09:03:42;;;;;;;66.38;31.25;;;-2.40;99.90;;;;;;5036184;28;20018;-68
2022/11/20 09:06:07;;;;;;;65.00;28.58;;;-2.30;99.90;;;;;;5036233;28;20128;-68
2022/11/20 09:08:35;;;;;;;49.90;24.30;;;-2.10;99.90;;;;;;5034740;28;20470;-68
2022/11/20 09:11:00;;;;;;;49.92;21.80;;;-2.00;99.90;;;;;;5051623;28;20411;-74
2022/11/20 09:13:28;;;;;;;49.15;24.45;;;-1.90;99.90;;;;;;5075879;28;20055;-68
2022/11/20 09:15:58;;;;;;;43.22;21.98;;;-1.80;99.90;;;;;;5075840;28;20029;-75
2022/11/20 09:18:25;;;;;;;41.58;20.20;;;-1.70;99.90;;;;;;5075647;28;20028;-68
2022/11/20 09:20:50;;;;;;;37.40;19.63;;;-1.60;99.90;;;;;;5075790;28;20040;-74
2022/11/20 09:23:16;;;;;;;41.85;20.02;;;-1.50;99.90;;;;;;5074412;28;20029;-75
2022/11/20 09:25:42;;;;;;;43.72;21.35;;;-1.50;99.90;;;;;;5075703;28;20024;-75
2022/11/20 09:28:08;;;;;;;39.47;20.98;;;-1.50;99.90;;;;;;5074354;28;20029;-74
2022/11/20 09:30:33;;;;;;;39.53;23.10;;;-1.40;99.90;;;;;;5058399;28;20481;-67
2022/11/20 09:32:59;;;;;;;44.65;22.35;;;-1.40;99.90;;;;;;5055456;28;20024;-68
2022/11/20 09:35:24;;;;;;;45.47;22.20;;;-1.30;99.90;;;;;;5038499;28;20406;-67
2022/11/20 09:37:50;;;;;;;47.00;22.25;;;-1.30;99.90;;;;;;5054190;28;20027;-75
2022/11/20 09:40:22;;;;;;;45.67;21.85;;;-1.30;99.90;;;;;;5055349;28;20059;-75
2022/11/20 09:42:55;;;;;;;41.47;22.00;;;-1.20;99.90;;;;;;5055359;28;20072;-75
2022/11/20 09:45:42;;;;;;;45.80;22.40;;;-1.20;99.90;;;;;;5055410;28;20079;-68
2022/11/20 09:48:46;;;;;;;40.50;20.30;;;-1.20;99.90;;;;;;5055405;28;20429;-74
2022/11/20 09:51:17;;;;;;;;;;;-1.10;99.90;;;;;;5034168;28;20033;-75
2022/11/20 09:53:53;;;;;;;42.63;19.60;;;-1.10;99.90;;;;;;5053458;28;19912;-75
2022/11/20 09:56:20;;;;;;;37.92;19.60;;;-1.10;99.90;;;;;;5058124;28;20410;-75
2022/11/20 09:58:49;;;;;;;43.08;22.02;;;-1.00;99.90;;;;;;5073831;28;20494;-75
2022/11/20 10:01:20;;;;;;;40.70;20.73;;;-1.00;99.90;;;;;;5073261;28;20098;-67
2022/11/20 10:03:51;;;;;;;41.33;20.30;;;-1.00;99.90;;;;;;5074934;28;20055;-75
2022/11/20 10:06:21;;;;;;;43.65;20.95;;;-1.00;99.90;;;;;;5075026;28;20173;-75
2022/11/20 10:09:12;;;;;;;38.72;20.77;;;-0.90;99.90;;;;;;5073601;28;20096;-76
2022/11/20 10:11:55;;;;;;;42.08;22.83;;;-0.80;99.90;;;;;;5060897;28;20029;-74
2022/11/20 10:14:47;;;;;;;45.05;21.85;;;-0.80;99.90;;;;;;5054750;28;20029;-75
2022/11/20 10:17:18;;;;;;;44.53;21.95;;;-0.80;99.90;;;;;;5054935;28;20021;-67
2022/11/20 10:20:12;;;;;;;42.15;19.77;;;-0.70;99.90;;;;;;5054753;28;20040;-67
2022/11/20 10:22:57;;;;;;;42.28;20.77;;;-0.70;99.90;;;;;;5054660;28;20025;-75
2022/11/20 10:25:43;;;;;;;44.78;22.50;;;-0.70;99.90;;;;;;5049170;28;20037;-76
2022/11/20 10:28:27;;;;;;;46.88;24.35;;;-0.70;99.90;;;;;;5051818;28;20517;-67
2022/11/20 10:31:07;;;;;;;40.33;19.85;;;-0.70;99.90;;;;;;5052807;28;20063;-67
2022/11/20 10:33:38;;;;;;;43.47;20.52;;;-0.60;99.90;;;;;;5052952;28;20029;-67
2022/11/20 10:36:22;;;;;;;44.88;22.80;;;-0.60;99.90;;;;;;5052582;28;20009;-74
2022/11/20 10:39:14;;;;;;;38.53;18.23;;;-0.60;99.90;;;;;;5053530;28;20482;-68
2022/11/20 10:41:41;;;;;;;36.08;18.33;;;-0.60;99.90;;;;;;5054040;28;20112;-68
2022/11/20 10:47:03;;;;;;;28.33;14.13;;;-0.60;99.90;;;;;;5054172;28;20031;-74
2022/11/20 10:49:32;;;;;;;31.05;17.08;;;-0.50;99.90;;;;;;5052591;28;20461;-75
2022/11/20 10:52:13;;;;;;;31.08;14.68;;;-0.50;99.90;;;;;;5036715;28;20064;-74
2022/11/20 10:55:16;;;;;;;26.73;12.88;;;-0.40;99.90;;;;;;5033882;28;20025;-67
2022/11/20 10:57:54;;;;;;;25.45;14.20;;;-0.40;99.90;;;;;;5032535;28;20033;-67
2022/11/20 11:00:20;;;;;;;30.60;15.48;;;-0.30;99.90;;;;;;5032622;28;20067;-69
2022/11/20 11:02:54;;;;;;;37.13;17.65;;;-0.30;99.90;;;;;;5045985;28;20494;-68
2022/11/20 11:05:20;;;;;;;30.48;15.15;;;-0.20;99.90;;;;;;5067679;28;20020;-75
2022/11/20 11:07:48;;;;;;;34.83;18.52;;;-0.20;99.90;;;;;;5071405;28;20043;-75
2022/11/20 11:10:41;;;;;;;36.63;20.52;;;-0.10;99.90;;;;;;5061762;28;20425;-67
2022/11/20 11:13:07;;;;;;;31.73;20.13;;;0.00;99.90;;;;;;5063784;28;20078;-75
2022/11/20 11:15:40;;;;;;;29.40;15.82;;;0.00;99.90;;;;;;5057359;28;20024;-67
2022/11/20 11:18:10;;;;;;;28.33;15.60;;;0.00;99.90;;;;;;5070085;28;20027;-75
2022/11/20 11:20:36;;;;;;;33.58;17.52;;;0.00;99.90;;;;;;5072287;28;20036;-67
2022/11/20 11:23:04;;;;;;;39.97;20.15;;;0.00;99.90;;;;;;5072397;28;20040;-68
2022/11/20 11:25:30;;;;;;;38.53;17.23;;;0.00;99.90;;;;;;5070928;28;20048;-76
2022/11/20 11:28:02;;;;;;;41.83;19.65;;;0.00;99.90;;;;;;5071958;28;20428;-76
2022/11/20 11:30:39;;;;;;;33.88;16.48;;;0.00;99.90;;;;;;5072297;28;20111;-76
2022/11/20 11:33:09;;;;;;;34.72;16.60;;;0.00;99.90;;;;;;5071555;28;20024;-67
2022/11/20 11:35:45;;;;;;;31.85;16.67;;;0.00;99.90;;;;;;5062147;28;20486;-76
2022/11/20 11:38:19;;;;;;;36.33;17.17;;;0.10;99.90;;;;;;5069723;28;20543;-76
2022/11/20 11:40:46;;;;;;;33.42;17.85;;;0.10;99.90;;;;;;5072089;28;20028;-73
2022/11/20 11:46:13;;;;;;;;;;;0.10;99.90;;;;;;5064425;28;20058;-65
2022/11/20 11:48:39;;;;;;;;;;;0.20;99.90;;;;;;5072709;28;19961;-73
2022/11/20 11:51:09;;;;;;;41.17;18.75;;;0.20;99.90;;;;;;5071947;28;19904;-73
2022/11/20 11:53:41;;;;;;;35.88;16.48;;;0.20;99.90;;;;;;5061801;28;20104;-73
2022/11/20 11:56:09;;;;;;;50.08;23.55;;;0.20;99.90;;;;;;5071322;28;20024;-67
2022/11/20 11:58:47;;;;;;;48.90;25.73;;;0.20;99.90;;;;;;5071189;28;20066;-65
2022/11/20 12:01:29;;;;;;;36.83;19.00;;;0.10;99.90;;;;;;5073006;28;20046;-72
2022/11/20 12:04:13;;;;;;;37.25;19.75;;;0.20;99.90;;;;;;5071936;28;20034;-65
2022/11/20 12:06:42;;;;;;;34.60;19.25;;;0.20;99.90;;;;;;5072864;28;20030;-72
2022/11/20 12:09:11;;;;;;;39.35;18.90;;;0.20;99.90;;;;;;5073018;28;20027;-65
2022/11/20 12:11:54;;;;;;;35.92;18.92;;;0.20;99.90;;;;;;5071637;28;20119;-65
2022/11/20 12:14:26;;;;;;;48.00;22.65;;;0.20;99.90;;;;;;5073192;28;20055;-69
2022/11/20 12:16:53;;;;;;;43.67;20.67;;;0.20;99.90;;;;;;5073137;28;20081;-74
2022/11/20 12:19:19;;;;;;;40.45;19.67;;;0.20;99.90;;;;;;5071514;28;20033;-67
2022/11/20 12:22:06;;;;;;;38.20;17.98;;;0.30;99.90;;;;;;5072799;28;20047;-68
2022/11/20 12:24:50;;;;;;;35.17;19.15;;;0.30;99.90;;;;;;5076035;28;20052;-75
2022/11/20 12:27:46;;;;;;;81.60;34.47;;;0.30;99.90;;;;;;5076975;28;20111;-67
2022/11/20 12:30:19;;;;;;;65.53;31.90;;;0.30;99.90;;;;;;5076888;28;20024;-67
2022/11/20 12:33:03;;;;;;;59.78;34.40;;;0.30;99.90;;;;;;5076995;28;20024;-75
2022/11/20 12:35:52;;;;;;;50.03;28.25;;;0.40;99.90;;;;;;5076398;28;20032;-75
2022/11/20 12:39:03;;;;;;;37.28;20.25;;;0.40;99.90;;;;;;5056000;28;20046;-68
2022/11/20 12:47:39;;;;;;;39.40;20.77;;;0.40;99.90;;;;;;5056539;28;20513;-74
2022/11/20 12:50:50;;;;;;;41.38;21.70;;;0.40;99.90;;;;;;5056478;28;20017;-68
2022/11/20 12:53:46;;;;;;;42.40;18.00;;;0.40;99.90;;;;;;5055961;28;20064;-68
2022/11/20 12:56:29;;;;;;;34.83;17.77;;;0.50;99.90;;;;;;5056434;28;20025;-74